Time;durP1;ratioP1;P1;durP2;ratioP2;P2;SDS_P1;SDS_P2;PMS_P1;PMS_P2;Temp;Humidity;BMP_temperature;BMP_pressure;BME280_temperature;BME280_humidity;BME280_pressure;Samples;Min_cycle;Max_cycle;Signal;HPM_P1;HPM_P2
2022/10/25 00:01:22;;;;;;;;;7.00;5.50;;;;;15.12;100.00;99625.56;5013064;28;47017;-78
2022/10/25 00:03:48;;;;;;;;;4.00;3.40;;;;;15.12;100.00;99625.56;5015616;28;45396;-78
2022/10/25 00:06:13;;;;;;;;;5.75;5.00;;;;;15.10;100.00;99628.31;5014063;28;45468;-78
2022/10/25 00:08:39;;;;;;;;;3.50;3.50;;;;;15.10;100.00;99627.44;5015579;28;45396;-78
2022/10/25 00:11:06;;;;;;;;;2.50;2.50;;;;;15.07;100.00;99624.97;5015516;28;45502;-78
2022/10/25 00:13:32;;;;;;;;;5.60;3.80;;;;;15.06;100.00;99626.75;5015099;28;45404;-78
2022/10/25 00:15:57;;;;;;;;;3.00;3.00;;;;;15.04;100.00;99625.97;5015067;28;45428;-78
2022/10/25 00:18:23;;;;;;;;;4.50;4.00;;;;;15.01;100.00;99618.16;5015056;28;45495;-78
2022/10/25 00:20:48;;;;;;;;;5.00;4.25;;;;;15.00;100.00;99622.59;5008471;28;45392;-78
2022/10/25 00:23:14;;;;;;;;;3.00;3.00;;;;;14.99;100.00;99622.69;5015347;28;45361;-78
2022/10/25 00:25:39;;;;;;;;;5.25;3.75;;;;;14.98;100.00;99618.31;5010398;28;45483;-78
2022/10/25 00:28:05;;;;;;;;;3.25;3.25;;;;;14.97;100.00;99622.75;5015517;28;45400;-78
2022/10/25 00:30:30;;;;;;;;;4.25;4.25;;;;;14.96;100.00;99615.72;5013923;28;46928;-78
2022/10/25 00:32:57;;;;;;;;;5.50;5.50;;;;;14.94;100.00;99614.06;5012721;28;45340;-78
2022/10/25 00:35:23;;;;;;;;;5.00;5.00;;;;;14.92;100.00;99610.63;5005979;28;45536;-79
2022/10/25 00:37:49;;;;;;;;;8.00;5.00;;;;;14.91;100.00;99627.53;4999910;28;45634;-78
2022/10/25 00:40:15;;;;;;;;;3.00;3.00;;;;;14.90;100.00;99612.53;4998739;28;45518;-78
2022/10/25 00:42:40;;;;;;;;;6.00;5.25;;;;;14.89;100.00;99616.97;5000124;28;45481;-78
2022/10/25 00:45:24;;;;;;;;;4.25;4.25;;;;;14.89;100.00;99616.97;4997206;28;45483;-78
2022/10/25 00:48:03;;;;;;;;;6.50;5.00;;;;;14.88;100.00;99611.75;4998050;28;45584;-78
2022/10/25 00:50:49;;;;;;;;;4.80;4.80;;;;;14.88;100.00;99625.88;4998062;28;45512;-78
2022/10/25 00:53:23;;;;;;;;;7.00;5.00;;;;;14.88;100.00;99612.59;5000765;28;45466;-78
2022/10/25 00:56:00;;;;;;;;;7.20;6.20;;;;;14.87;100.00;99610.88;4999678;28;45551;-78
2022/10/25 00:58:30;;;;;;;;;8.00;5.75;;;;;14.86;100.00;99619.78;4999746;28;45570;-78
2022/10/25 01:00:56;;;;;;;;;9.00;7.00;;;;;14.86;100.00;99606.50;4998984;28;45583;-78
2022/10/25 01:03:22;;;;;;;;;10.00;6.00;;;;;14.85;100.00;99614.56;5000087;28;45598;-78
2022/10/25 01:05:50;;;;;;;;;5.50;3.50;;;;;14.84;100.00;99613.69;4997142;28;45685;-78
2022/10/25 01:08:18;;;;;;;;;4.00;3.50;;;;;14.84;100.00;99618.13;4999501;28;45497;-78
2022/10/25 01:10:45;;;;;;;;;6.80;5.40;;;;;14.82;100.00;99617.34;4998681;28;45539;-78
2022/10/25 01:13:10;;;;;;;;;7.00;5.80;;;;;14.81;100.00;99615.63;4999488;28;45532;-78
2022/10/25 01:16:01;;;;;;;;;6.00;5.00;;;;;14.80;100.00;99614.78;4999491;28;45686;-78
2022/10/25 01:18:42;;;;;;;;;5.50;5.50;;;;;14.80;100.00;99613.91;4999220;28;45548;-78
2022/10/25 01:21:35;;;;;;;;;4.20;4.20;;;;;14.79;100.00;99596.25;4998589;28;45951;-78
2022/10/25 01:24:38;;;;;;;;;4.60;4.60;;;;;14.76;100.00;99605.22;4998890;28;45593;-78
2022/10/25 01:27:46;;;;;;;;;4.40;4.40;;;;;14.74;100.00;99606.28;4998550;28;45737;-78
2022/10/25 01:30:35;;;;;;;;;8.00;7.50;;;;;14.70;100.00;99602.91;4997703;28;45488;-78
2022/10/25 01:33:14;;;;;;;;;7.20;4.20;;;;;14.70;100.00;99607.34;4996575;28;46481;-78
2022/10/25 01:36:04;;;;;;;;;9.00;7.20;;;;;14.68;100.00;99604.75;5009037;28;45506;-78
2022/10/25 01:39:08;;;;;;;;;6.60;5.20;;;;;14.67;100.00;99608.34;5017242;28;45589;-78
2022/10/25 01:41:44;;;;;;;;;6.75;6.00;;;;;14.65;100.00;99603.13;5009627;28;45584;-78
2022/10/25 01:44:18;;;;;;;;;5.25;5.00;;;;;14.63;100.00;99607.63;5011869;28;45473;-78
2022/10/25 01:47:02;;;;;;;;;5.60;4.20;;;;;14.61;100.00;99601.53;5005951;28;45472;-78
2022/10/25 01:49:44;;;;;;;;;7.75;6.00;;;;;14.60;100.00;99598.97;5015872;28;45496;-78
2022/10/25 01:52:09;;;;;;;;;5.00;5.00;;;;;14.58;100.00;99596.38;5013391;28;45474;-79
2022/10/25 01:54:35;;;;;;;;;5.50;4.25;;;;;14.57;100.00;99592.03;5015491;28;45402;-78
2022/10/25 01:57:28;;;;;;;;;7.75;5.75;;;;;14.57;100.00;99594.69;5003134;28;45489;-78
2022/10/25 02:00:16;;;;;;;;;7.00;6.00;;;;;14.55;100.00;99590.38;5003560;28;45529;-79
2022/10/25 02:02:51;;;;;;;;;9.25;7.75;;;;;14.55;100.00;99587.72;5014070;28;45523;-78
2022/10/25 02:05:34;;;;;;;;;4.50;4.50;;;;;14.54;100.00;99581.56;5004925;28;46116;-79
2022/10/25 02:08:17;;;;;;;;;5.40;5.40;;;;;14.54;100.00;99580.72;5014840;28;45493;-78
2022/10/25 02:10:50;;;;;;;;;5.00;5.00;;;;;14.52;100.00;99575.47;5015557;28;45410;-78
2022/10/25 02:13:24;;;;;;;;;4.00;4.00;;;;;14.52;100.00;99575.47;5017501;28;45170;-78
2022/10/25 02:16:00;;;;;;;;;5.00;5.00;;;;;14.53;100.00;99571.03;5015601;28;47209;-78
2022/10/25 02:18:29;;;;;;;;;5.20;4.20;;;;;14.54;100.00;99570.94;5017022;28;45292;-78
2022/10/25 02:20:57;;;;;;;;;6.00;5.00;;;;;14.54;100.00;99567.44;5011608;28;45346;-78
2022/10/25 02:23:25;;;;;;;;;5.50;3.75;;;;;14.56;100.00;99568.22;5017206;28;45358;-78
2022/10/25 02:25:53;;;;;;;;;6.00;4.40;;;;;14.58;100.00;99568.97;5013634;28;46414;-78
2022/10/25 02:28:23;;;;;;;;;4.20;4.20;;;;;14.60;100.00;99567.97;5016923;28;45345;-78
2022/10/25 02:30:51;;;;;;;;;6.00;5.75;;;;;14.62;100.00;99567.91;5016621;28;45359;-79
2022/10/25 02:33:16;;;;;;;;;6.00;5.25;;;;;14.63;100.00;99569.63;5018237;28;45512;-78
2022/10/25 02:35:42;;;;;;;;;5.00;5.00;;;;;14.62;100.00;99566.09;5006159;28;46322;-78
2022/10/25 02:38:08;;;;;;;;;5.50;3.50;;;;;14.64;100.00;99568.69;5002269;28;45468;-78
2022/10/25 02:40:35;;;;;;;;;6.00;5.75;;;;;14.65;100.00;99570.41;5001210;28;45727;-78
2022/10/25 02:43:00;;;;;;;;;3.00;3.00;;;;;14.66;100.00;99561.53;5001043;28;45567;-79
2022/10/25 02:45:26;;;;;;;;;4.75;4.75;;;;;14.66;100.00;99558.88;4999523;28;46992;-79
2022/10/25 02:47:51;;;;;;;;;5.50;5.50;;;;;14.67;100.00;99560.59;5001943;28;45616;-79
2022/10/25 02:50:17;;;;;;;;;5.75;5.25;;;;;14.68;100.00;99561.44;5000853;28;45497;-78
2022/10/25 02:52:42;;;;;;;;;4.00;4.00;;;;;14.69;100.00;99565.81;5002491;28;45460;-78
2022/10/25 02:55:08;;;;;;;;;6.25;4.50;;;;;14.70;100.00;99563.09;5001832;28;46469;-79
2022/10/25 02:57:35;;;;;;;;;4.50;4.50;;;;;14.72;100.00;99563.03;5002403;28;45483;-78
2022/10/25 03:00:00;;;;;;;;;4.20;4.20;;;;;14.72;100.00;99558.56;5002049;28;45532;-78
2022/10/25 03:12:09;;;;;;;;;5.25;4.75;;;;;14.74;100.00;99551.41;4993694;28;72659;-78
2022/10/25 03:14:34;;;;;;;;;4.75;4.50;;;;;14.73;100.00;99554.97;4993268;28;46185;-78
2022/10/25 03:16:59;;;;;;;;;6.50;3.75;;;;;14.72;100.00;99555.91;4994391;28;45608;-78
2022/10/25 03:19:25;;;;;;;;;4.00;4.00;;;;;14.71;100.00;99562.16;5001182;28;45505;-79
2022/10/25 03:21:50;;;;;;;;;7.75;7.75;;;;;14.69;100.00;99558.72;5001920;28;45662;-79
2022/10/25 03:24:15;;;;;;;;;5.75;5.75;;;;;14.69;100.00;99564.03;5000093;28;48028;-78
2022/10/25 03:26:41;;;;;;;;;6.00;6.00;;;;;14.69;100.00;99565.81;5001624;28;45553;-79
2022/10/25 03:29:06;;;;;;;;;6.00;6.00;;;;;14.65;100.00;99571.28;5003902;28;45850;-78
2022/10/25 03:31:32;;;;;;;;;6.50;6.50;;;;;14.65;100.00;99573.06;4989691;28;45626;-79
2022/10/25 03:33:57;;;;;;;;;8.75;6.75;;;;;14.63;100.00;99577.59;5000229;28;45465;-79
2022/10/25 03:36:22;;;;;;;;;6.50;5.75;;;;;14.63;100.00;99577.59;5017559;28;45728;-79
2022/10/25 03:38:48;;;;;;;;;7.25;7.00;;;;;14.60;100.00;99572.44;5000757;28;47025;-79
2022/10/25 03:41:13;;;;;;;;;9.50;8.00;;;;;14.57;100.00;99575.25;4994322;28;46017;-79
2022/10/25 03:43:39;;;;;;;;;11.50;9.75;;;;;14.54;100.00;99575.41;4994611;28;46289;-79
2022/10/25 03:46:04;;;;;;;;;6.25;5.50;;;;;14.52;100.00;99580.78;4994357;28;45645;-79
2022/10/25 03:48:30;;;;;;;;;2.00;2.00;;;;;14.48;100.00;99581.84;5001855;28;45463;-78
2022/10/25 03:50:55;;;;;;;;;9.75;9.75;;;;;14.45;100.00;99581.13;5000311;28;45727;-79
2022/10/25 03:53:20;;;;;;;;;11.00;9.50;;;;;14.42;100.00;99581.28;5001713;28;45483;-78
2022/10/25 03:55:47;;;;;;;;;9.00;7.00;;;;;14.39;100.00;99587.59;4998969;28;45507;-79
2022/10/25 03:58:12;;;;;;;;;10.00;8.25;;;;;14.36;100.00;99584.22;5001576;28;45721;-79
2022/10/25 04:00:37;;;;;;;;;8.00;7.25;;;;;14.31;100.00;99585.28;4995271;28;45781;-78
2022/10/25 04:03:03;;;;;;;;;9.25;9.00;;;;;14.30;100.00;99588.88;5000360;28;45966;-78
2022/10/25 04:05:30;;;;;;;;;13.75;11.75;;;;;14.29;100.00;99583.63;4999337;28;45587;-78
2022/10/25 04:07:56;;;;;;;;;8.75;8.75;;;;;14.28;100.00;99588.06;5001243;28;45558;-78
2022/10/25 04:10:21;;;;;;;;;9.00;9.00;;;;;14.25;100.00;99590.88;5000609;28;45492;-79
2022/10/25 04:12:47;;;;;;;;;8.25;8.25;;;;;14.23;100.00;99595.41;5001559;28;46051;-78
2022/10/25 04:15:13;;;;;;;;;10.00;10.00;;;;;14.23;100.00;99597.22;4999734;28;45547;-78
2022/10/25 04:17:39;;;;;;;;;12.75;11.25;;;;;14.18;100.00;99600.06;5000143;28;45438;-78
2022/10/25 04:20:05;;;;;;;;;13.00;13.00;;;;;14.17;100.00;99602.78;4994530;28;45548;-78
2022/10/25 04:22:30;;;;;;;;;20.25;15.75;;;;;14.14;100.00;99600.28;4999583;28;46113;-78
2022/10/25 04:24:57;;;;;;;;;13.50;12.50;;;;;14.13;100.00;99603.84;5001529;28;45497;-78
2022/10/25 04:27:22;;;;;;;;;13.75;13.00;;;;;14.11;100.00;99597.75;5008130;28;45456;-79
2022/10/25 04:29:49;;;;;;;;;12.00;12.00;;;;;14.12;100.00;99599.47;5026373;28;45431;-79
2022/10/25 04:32:15;;;;;;;;;13.50;12.50;;;;;14.11;100.00;99593.31;5018099;28;46524;-72
2022/10/25 04:34:40;;;;;;;;;13.25;11.50;;;;;14.14;100.00;99601.13;5011621;28;45428;-72
2022/10/25 04:37:06;;;;;;;;;22.25;22.25;;;;;14.17;100.00;99597.47;5013780;28;45462;-71
2022/10/25 04:39:31;;;;;;;;;15.75;13.50;;;;;14.17;100.00;99594.84;5015031;28;45521;-71
2022/10/25 04:41:56;;;;;;;;;14.75;14.00;;;;;14.14;100.00;99601.13;5022397;28;45456;-71
2022/10/25 04:44:22;;;;;;;;;21.50;17.50;;;;;14.13;100.00;99606.50;5019145;28;45393;-71
2022/10/25 04:46:47;;;;;;;;;20.50;16.00;;;;;14.10;100.00;99599.56;5015070;28;45530;-71
2022/10/25 04:49:13;;;;;;;;;15.25;15.00;;;;;14.09;100.00;99605.78;5014825;28;45370;-71
2022/10/25 04:51:39;;;;;;;;;19.25;16.00;;;;;14.09;100.00;99603.13;5014861;28;46376;-71
2022/10/25 04:54:04;;;;;;;;;14.00;12.75;;;;;14.11;100.00;99597.75;5013129;28;45374;-71
2022/10/25 04:56:31;;;;;;;;;12.00;11.75;;;;;14.09;100.00;99597.84;5013814;28;45359;-71
2022/10/25 04:58:57;;;;;;;;;10.75;10.75;;;;;14.06;100.00;99594.50;5005920;28;45553;-71
2022/10/25 05:01:23;;;;;;;;;14.00;11.50;;;;;14.04;100.00;99593.69;4999997;28;46539;-72
2022/10/25 05:03:48;;;;;;;;;16.00;11.25;;;;;14.01;100.00;99596.47;5013385;28;45402;-71
2022/10/25 05:06:21;;;;;;;;;13.50;13.00;;;;;13.97;100.00;99593.97;5016502;28;45255;-71
2022/10/25 05:08:48;;;;;;;;;10.25;9.00;;;;;13.94;100.00;99590.59;5008113;28;45415;-72
2022/10/25 05:11:15;;;;;;;;;10.50;9.00;;;;;13.91;100.00;99591.59;5009752;28;46700;-72
2022/10/25 05:13:41;;;;;;;;;10.50;9.00;;;;;13.88;100.00;99593.53;5010855;28;45502;-72
2022/10/25 05:16:11;;;;;;;;;10.00;9.00;;;;;13.85;100.00;99586.59;5013890;28;45465;-71
2022/10/25 05:18:36;;;;;;;;;9.00;8.50;;;;;13.79;100.00;99589.50;5013652;28;45401;-72
2022/10/25 05:21:04;;;;;;;;;9.75;9.25;;;;;13.75;100.00;99590.56;5011189;28;45352;-71
2022/10/25 05:23:32;;;;;;;;;9.00;7.25;;;;;13.70;100.00;99589.09;5014045;28;45506;-72
2022/10/25 05:26:03;;;;;;;;;9.25;9.25;;;;;13.67;100.00;99578.63;5013344;28;45381;-71
2022/10/25 05:28:29;;;;;;;;;8.50;8.50;;;;;13.65;100.00;99576.03;5014128;28;45515;-72
2022/10/25 05:30:55;;;;;;;;;8.00;7.00;;;;;13.61;100.00;99583.25;5014644;28;46531;-70
2022/10/25 05:33:20;;;;;;;;;7.50;7.50;;;;;13.60;100.00;99584.19;5011825;28;45446;-67
2022/10/25 05:35:45;;;;;;;;;9.50;8.75;;;;;13.58;100.00;99580.75;5013739;28;45459;-66
2022/10/25 05:38:11;;;;;;;;;13.00;11.00;;;;;13.58;100.00;99571.94;5014236;28;45553;-65
2022/10/25 05:40:36;;;;;;;;;10.75;10.75;;;;;13.58;100.00;99566.63;5014069;28;46368;-66
2022/10/25 05:43:01;;;;;;;;;9.25;8.50;;;;;13.57;100.00;99573.72;5014095;28;45288;-66
2022/10/25 05:45:28;;;;;;;;;9.75;9.75;;;;;13.56;100.00;99566.72;5014149;28;45773;-66
2022/10/25 05:47:53;;;;;;;;;10.00;8.75;;;;;13.55;100.00;99572.09;5014041;28;45436;-66
2022/10/25 05:50:18;;;;;;;;;11.50;11.00;;;;;13.52;100.00;99570.44;5012918;28;45408;-66
2022/10/25 05:52:44;;;;;;;;;12.00;12.00;;;;;13.50;100.00;99576.72;5013539;28;45327;-65
2022/10/25 05:55:09;;;;;;;;;14.25;12.00;;;;;13.50;100.00;99576.72;5028830;28;45500;-61
2022/10/25 05:57:35;;;;;;;;;9.50;7.50;;;;;13.51;100.00;99573.16;5014033;28;45307;-61
2022/10/25 06:00:01;;;;;;;;;12.00;11.50;;;;;13.52;100.00;99572.22;5014135;28;45697;-60
2022/10/25 06:02:26;;;;;;;;;10.25;10.25;;;;;13.52;100.00;99569.56;5012706;28;45621;-61
2022/10/25 06:04:51;;;;;;;;;10.00;9.50;;;;;13.49;100.00;99575.00;5013565;28;45172;-61
2022/10/25 06:07:17;;;;;;;;;36.67;33.67;;;;;13.47;100.00;99568.91;5013569;28;45499;-61
2022/10/25 06:09:42;;;;;;;;;15.50;15.00;;;;;13.45;100.00;99573.41;5013497;28;45315;-63
2022/10/25 06:12:08;;;;;;;;;14.00;12.25;;;;;13.47;100.00;99574.22;5013074;28;45246;-61
2022/10/25 06:14:33;;;;;;;;;10.00;9.75;;;;;13.45;100.00;99578.72;5013296;28;45409;-61
2022/10/25 06:16:59;;;;;;;;;11.25;9.00;;;;;13.44;100.00;99582.28;5011354;28;45492;-61
2022/10/25 06:19:24;;;;;;;;;11.00;11.00;;;;;13.43;100.00;99578.78;5015274;28;45507;-61
2022/10/25 06:21:49;;;;;;;;;8.00;8.00;;;;;13.41;100.00;99583.28;5016670;28;45439;-61
2022/10/25 06:24:15;;;;;;;;;11.75;11.00;;;;;13.42;100.00;99581.50;5016961;28;45341;-61
2022/10/25 06:26:40;;;;;;;;;8.75;8.75;;;;;13.42;100.00;99584.13;5016952;28;45407;-61
2022/10/25 06:29:05;;;;;;;;;8.00;8.00;;;;;13.42;100.00;99592.09;5017330;28;45428;-61
2022/10/25 06:31:32;;;;;;;;;9.00;8.75;;;;;13.41;100.00;99593.88;5016751;28;45457;-61
2022/10/25 06:33:59;;;;;;;;;8.50;8.50;;;;;13.40;100.00;99594.81;5016933;28;45470;-62
2022/10/25 06:36:26;;;;;;;;;11.25;9.25;;;;;13.41;100.00;99600.97;5016169;28;45407;-61
2022/10/25 06:38:52;;;;;;;;;11.50;8.50;;;;;13.39;100.00;99602.84;5016300;28;46401;-61
2022/10/25 06:41:22;;;;;;;;;12.00;10.50;;;;;13.39;100.00;99603.69;5031700;28;45470;-61
2022/10/25 06:43:49;;;;;;;;;16.00;13.75;;;;;13.40;100.00;99601.91;5016527;28;45409;-61
2022/10/25 06:46:22;;;;;;;;;11.00;9.75;;;;;13.42;100.00;99600.88;5016388;28;45455;-61
2022/10/25 06:48:48;;;;;;;;;12.50;11.00;;;;;13.46;100.00;99598.97;5016842;28;46242;-61
2022/10/25 06:51:14;;;;;;;;;11.50;8.50;;;;;13.46;100.00;99602.47;5016263;28;45392;-61
2022/10/25 06:53:39;;;;;;;;;13.00;12.00;;;;;13.43;100.00;99599.09;5016525;28;45515;-61
2022/10/25 06:56:10;;;;;;;;;11.75;11.00;;;;;13.45;100.00;99610.50;5016613;28;45485;-61
2022/10/25 06:58:36;;;;;;;;;11.25;10.25;;;;;13.44;100.00;99609.63;5015150;28;47762;-61
2022/10/25 07:01:04;;;;;;;;;10.20;10.20;;;;;13.47;100.00;99614.81;5015208;28;45446;-61
2022/10/25 07:03:34;;;;;;;;;9.25;9.25;;;;;13.51;100.00;99607.59;5016665;28;45419;-61
2022/10/25 07:06:21;;;;;;;;;11.50;10.75;;;;;13.52;100.00;99612.81;5015483;28;45567;-61
2022/10/25 07:08:47;;;;;;;;;12.75;11.00;;;;;13.50;100.00;99612.03;5016463;28;45542;-61
2022/10/25 07:11:17;;;;;;;;;12.75;12.00;;;;;13.51;100.00;99604.94;5016373;28;45362;-61
2022/10/25 07:13:43;;;;;;;;;8.25;8.25;;;;;13.52;100.00;99609.31;5015370;28;45409;-61
2022/10/25 07:16:11;;;;;;;;;8.00;8.00;;;;;13.52;100.00;99614.59;5017036;28;45318;-61
2022/10/25 07:18:37;;;;;;;;;11.25;10.25;;;;;13.52;100.00;99614.59;5016380;28;46220;-61
2022/10/25 07:21:05;;;;;;;;;7.25;6.75;;;;;13.53;100.00;99621.63;5016291;28;45472;-61
2022/10/25 07:23:30;;;;;;;;;8.75;7.50;;;;;13.53;100.00;99614.53;5015855;28;45338;-61
2022/10/25 07:25:56;;;;;;;;;9.25;7.50;;;;;13.54;100.00;99618.91;5016108;28;45380;-61
2022/10/25 07:28:22;;;;;;;;;8.25;5.75;;;;;13.58;100.00;99620.47;5016229;28;45402;-61
2022/10/25 07:30:48;;;;;;;;;9.50;9.50;;;;;13.59;100.00;99613.38;5016168;28;45374;-61
2022/10/25 07:33:15;;;;;;;;;9.50;8.00;;;;;13.61;100.00;99611.53;5016108;28;45417;-61
2022/10/25 07:35:44;;;;;;;;;10.75;10.75;;;;;13.62;100.00;99618.56;5015908;28;45252;-61
2022/10/25 07:38:09;;;;;;;;;9.00;9.00;;;;;13.63;100.00;99614.97;5015623;28;46134;-61
2022/10/25 07:40:34;;;;;;;;;7.75;6.00;;;;;13.63;100.00;99618.50;5016021;28;45405;-61
2022/10/25 07:43:00;;;;;;;;;7.00;6.00;;;;;13.65;100.00;99626.38;5016185;28;45409;-61
2022/10/25 07:45:25;;;;;;;;;9.50;8.50;;;;;13.70;100.00;99623.53;5015461;28;45420;-61
2022/10/25 07:47:51;;;;;;;;;12.00;10.75;;;;;13.74;100.00;99622.47;5015542;28;46222;-61
2022/10/25 07:50:18;;;;;;;;;15.75;12.00;;;;;13.79;100.00;99621.31;5015413;28;45365;-61
2022/10/25 07:52:44;;;;;;;;;10.00;10.00;;;;;13.82;100.00;99615.03;5015518;28;45459;-61
2022/10/25 07:55:09;;;;;;;;;14.25;14.25;;;;;13.86;100.00;99614.81;5015374;28;45452;-61
2022/10/25 07:57:35;;;;;;;;;12.25;10.00;;;;;13.89;100.00;99612.03;5015264;28;46013;-61
2022/10/25 08:00:00;;;;;;;;;15.50;13.00;;;;;13.91;100.00;99609.28;5015885;28;45470;-61
2022/10/25 08:02:25;;;;;;;;;10.00;8.00;;;;;13.95;100.00;99610.88;5015494;28;45336;-61
2022/10/25 08:04:51;;;;;;;;;12.50;11.25;;;;;13.96;100.00;99605.50;5015292;28;45448;-61
2022/10/25 08:07:16;;;;;;;;;11.00;10.00;;;;;13.98;100.00;99600.13;5015262;28;45443;-61
2022/10/25 08:09:41;;;;;;;;;12.50;9.00;;;;;13.98;100.00;99595.69;5015750;28;45512;-61
2022/10/25 08:12:07;;;;;;;;;11.25;10.25;;;;;14.01;100.00;99607.09;5015318;28;45403;-61
2022/10/25 08:14:32;;;;;;;;;14.25;13.75;;;;;14.02;100.00;99609.66;5015398;28;45543;-63
2022/10/25 08:16:57;;;;;;;;;17.25;16.50;;;;;14.05;100.00;99608.66;5015035;28;45939;-61
2022/10/25 08:19:23;;;;;;;;;19.25;17.75;;;;;14.06;100.00;99603.31;5015334;28;45655;-61
2022/10/25 08:21:48;;;;;;;;;15.00;15.00;;;;;14.08;100.00;99606.72;5015012;28;45446;-61
2022/10/25 08:24:13;;;;;;;;;18.75;17.75;;;;;14.11;100.00;99598.63;5015358;28;45417;-61
2022/10/25 08:26:39;;;;;;;;;16.50;15.75;;;;;14.14;100.00;99605.56;5014066;28;47560;-61
2022/10/25 08:29:04;;;;;;;;;17.25;16.75;;;;;14.18;100.00;99597.41;5015546;28;45378;-61
2022/10/25 08:31:29;;;;;;;;;15.50;15.50;;;;;14.21;100.00;99594.63;5015197;28;45616;-61
2022/10/25 08:33:55;;;;;;;;;13.00;13.00;;;;;14.24;100.00;99601.59;5015464;28;45374;-61
2022/10/25 08:36:22;;;;;;;;;13.25;13.25;;;;;14.28;100.00;99605.78;5013027;28;47419;-61
2022/10/25 08:38:48;;;;;;;;;12.00;9.60;;;;;14.34;100.00;99600.19;5015120;28;45406;-61
2022/10/25 08:41:20;;;;;;;;;12.00;9.50;;;;;14.40;100.00;99597.31;5014501;28;45441;-61
2022/10/25 08:44:10;;;;;;;;;10.50;9.25;;;;;14.48;100.00;99594.25;5014979;28;45481;-62
2022/10/25 08:46:42;;;;;;;;;7.50;6.75;;;;;14.54;100.00;99586.88;5014869;28;46204;-62
2022/10/25 08:49:46;;;;;;;;;11.20;10.60;;;;;14.61;100.00;99587.41;5014728;28;45398;-61
2022/10/25 08:52:33;;;;;;;;;11.00;10.25;;;;;14.72;100.00;99568.31;5013200;28;45362;-61
2022/10/25 08:55:01;;;;;;;;;11.00;11.00;;;;;14.79;100.00;99570.56;5014922;28;45248;-61
2022/10/25 08:57:31;;;;;;;;;4.25;3.25;;;;;14.87;100.00;99579.03;5014870;28;46593;-61
2022/10/25 09:00:06;;;;;;;;;10.60;8.80;;;;;14.96;100.00;99580.34;5014511;28;45373;-61
2022/10/25 09:02:40;;;;;;;;;9.50;9.00;;;;;15.04;100.00;99577.31;5014049;28;45422;-62
2022/10/25 09:05:15;;;;;;;;;7.00;6.00;;;;;15.09;100.00;99573.47;5014437;28;45414;-61
2022/10/25 09:08:15;;;;;;;;;5.80;5.80;;;;;15.17;100.00;99578.41;5014741;28;45420;-62
2022/10/25 09:10:50;;;;;;;;;8.80;7.40;;;;;15.24;100.00;99578.03;5006185;28;45624;-62
2022/10/25 09:13:25;;;;;;;;;7.60;7.60;;;;;15.33;100.00;99584.63;5013340;28;45583;-61
2022/10/25 09:15:58;;;;;;;;;9.00;8.50;;;;;15.39;100.00;99584.31;5013579;28;45475;-62
2022/10/25 09:18:42;;;;;;;;;11.00;10.00;;;;;15.45;100.00;99584.00;5013047;28;48246;-62
2022/10/25 09:21:26;;;;;;;;;13.50;11.50;;;;;15.52;100.00;99584.53;5013865;28;45407;-62
2022/10/25 09:23:57;;;;;;;;;12.50;11.75;;;;;15.57;100.00;99571.91;5014681;28;45492;-62
2022/10/25 09:26:50;;;;;;;;;8.50;7.50;;;;;15.62;100.00;99570.69;5014288;28;45497;-62
2022/10/25 09:29:47;;;;;;;;;10.75;10.75;;;;;15.69;100.00;99568.59;5014367;28;45599;-62
2022/10/25 09:32:32;;;;;;;;;11.40;11.20;;;;;15.74;100.00;99565.69;5013476;28;45436;-62
2022/10/25 09:35:00;;;;;;;;;8.00;8.00;;;;;15.81;100.00;99567.91;5014244;28;45421;-62
2022/10/25 09:37:38;;;;;;;;;5.75;4.00;;;;;15.88;100.00;99560.47;5014308;28;45359;-62
2022/10/25 09:40:31;;;;;;;;;12.00;6.75;;;;;15.98;100.00;99561.66;5014102;28;45514;-62
2022/10/25 09:43:04;;;;;;;;;6.20;5.80;;;;;16.04;100.00;99561.34;5013693;28;45303;-62
2022/10/25 09:45:39;;;;;;;;;7.50;5.50;;;;;16.11;100.00;99562.69;5014358;28;45447;-62
2022/10/25 09:48:11;;;;;;;;;9.75;8.50;;;;;16.17;100.00;99557.06;5014040;28;45406;-62
2022/10/25 09:50:46;;;;;;;;;6.40;6.40;;;;;16.22;100.00;99549.69;5013784;28;46150;-62
2022/10/25 09:53:13;;;;;;;;;6.80;5.40;;;;;16.29;100.00;99553.69;5014358;28;45548;-62
2022/10/25 09:55:44;;;;;;;;;7.80;5.60;;;;;16.36;100.00;99551.56;5017470;28;45472;-62
2022/10/25 09:58:23;;;;;;;;;6.25;6.00;;;;;16.42;100.00;99551.22;5017838;28;45692;-62
2022/10/25 10:00:50;;;;;;;;;9.00;7.80;;;;;16.49;100.00;99554.38;5016877;28;45981;-62
2022/10/25 10:03:16;;;;;;;;;6.00;5.60;;;;;16.55;100.00;99549.56;5017285;28;45297;-62
2022/10/25 10:05:55;;;;;;;;;5.25;4.00;;;;;16.63;100.00;99543.81;5016843;28;45303;-62
2022/10/25 10:08:23;;;;;;;;;4.60;4.20;;;;;16.70;100.00;99540.72;5017325;28;45278;-63
2022/10/25 10:10:51;;;;;;;;;4.40;4.40;;;;;16.76;100.00;99539.47;5017511;28;45460;-63
2022/10/25 10:13:34;;;;;;;;;8.00;7.00;;;;;16.81;100.00;99540.06;5017179;28;45391;-62
2022/10/25 10:16:05;;;;;;;;;5.20;3.40;;;;;16.88;100.00;99532.59;5017366;28;45457;-62
2022/10/25 10:18:32;;;;;;;;;6.00;6.00;;;;;16.93;100.00;99527.84;5017189;28;45450;-63
2022/10/25 10:21:12;;;;;;;;;9.80;8.40;;;;;16.97;100.00;99532.88;5016699;28;45508;-62
2022/10/25 10:23:58;;;;;;;;;10.20;9.80;;;;;17.04;100.00;99539.59;5017183;28;45441;-62
2022/10/25 10:26:42;;;;;;;;;6.60;5.60;;;;;17.10;100.00;99525.88;5016898;28;45283;-63
2022/10/25 10:29:07;;;;;;;;;8.00;7.40;;;;;17.16;100.00;99529.97;5017189;28;45424;-63
2022/10/25 10:31:38;;;;;;;;;9.00;6.75;;;;;17.21;100.00;99524.38;5016833;28;45337;-63
2022/10/25 10:34:07;;;;;;;;;6.00;5.00;;;;;17.30;100.00;99524.66;5017107;28;45421;-63
2022/10/25 10:36:33;;;;;;;;;8.00;7.20;;;;;17.38;100.00;99524.22;5016572;28;45472;-63
2022/10/25 10:39:31;;;;;;;;;7.25;7.25;;;;;17.45;100.00;99518.38;5016816;28;45414;-63
2022/10/25 10:42:13;;;;;;;;;9.60;9.40;;;;;17.52;100.00;99516.22;5004955;28;46481;-63
2022/10/25 10:44:38;;;;;;;;;10.00;8.60;;;;;17.60;100.00;99513.06;5016883;28;45484;-64
2022/10/25 10:47:18;;;;;;;;;9.75;8.00;;;;;17.67;100.00;99517.94;5017166;28;45380;-63
2022/10/25 10:49:45;;;;;;;;;7.00;6.40;;;;;17.73;100.00;99522.91;5003613;28;45450;-64
2022/10/25 10:52:26;;;;;;;;;9.20;6.00;;;;;17.77;100.00;99508.41;5016847;28;46205;-63
2022/10/25 10:54:51;;;;;;;;;5.20;4.40;;;;;17.82;100.00;99507.25;5015617;28;45468;-63
2022/10/25 10:57:33;;;;;;;;;8.00;6.25;;;;;17.86;100.00;99508.78;5016497;28;45420;-63
2022/10/25 11:00:00;;;;;;;;;5.00;5.00;;;;;17.91;100.00;99512.88;5016885;28;45521;-63
2022/10/25 11:02:40;;;;;;;;;5.60;4.20;;;;;17.96;100.00;99508.09;5016381;28;46510;-63
2022/10/25 11:05:29;;;;;;;;;6.60;5.40;;;;;18.00;100.00;99501.63;5014424;28;45337;-64
2022/10/25 11:07:59;;;;;;;;;7.60;6.80;;;;;18.05;100.00;99494.19;5016463;28;45381;-62
2022/10/25 11:10:32;;;;;;;;;7.60;6.20;;;;;18.11;100.00;99483.09;5015369;28;45524;-63
2022/10/25 11:13:18;;;;;;;;;8.00;7.00;;;;;18.20;100.00;99478.97;5015777;28;45467;-63
2022/10/25 11:16:07;;;;;;;;;3.60;3.60;;;;;18.29;100.00;99472.16;5016145;28;45428;-63
2022/10/25 11:18:50;;;;;;;;;6.20;6.20;;;;;18.41;100.00;99464.22;5016004;28;45409;-63
2022/10/25 11:21:30;;;;;;;;;7.00;7.00;;;;;18.51;100.00;99456.44;5015565;28;45492;-63
2022/10/25 11:24:34;;;;;;;;;4.40;4.40;;;;;18.63;100.00;99452.09;5015856;28;45483;-63
2022/10/25 11:27:25;;;;;;;;;6.60;6.60;;;;;18.78;100.00;99446.56;4993620;28;45367;-63
2022/10/25 11:30:00;;;;;;;;;5.60;4.60;;;;;18.94;100.00;99449.03;5015213;28;45359;-63
2022/10/25 11:32:40;;;;;;;;;7.00;6.00;;;;;19.07;100.00;99438.38;5015888;28;45296;-63
2022/10/25 11:35:19;;;;;;;;;3.80;3.80;;;;;19.17;100.00;99421.59;5015377;28;46072;-63
2022/10/25 11:37:55;;;;;;;;;3.80;2.40;;;;;19.26;100.00;99416.56;5015929;28;45474;-63
2022/10/25 11:40:32;;;;;;;;;2.80;2.80;;;;;19.36;100.00;99420.28;5016228;28;45512;-63
2022/10/25 11:43:26;;;;;;;;;4.00;3.40;;;;;19.43;100.00;99414.41;5014806;28;45353;-63
2022/10/25 11:46:02;;;;;;;;;3.60;3.60;;;;;19.57;100.00;99410.75;5030524;28;47134;-63